createdAt,value
2023-02-18T00:01:37.924Z,1.80
2023-02-18T00:04:04.928Z,2.00
2023-02-18T00:06:34.868Z,1.80
2023-02-18T00:09:04.100Z,1.85
2023-02-18T00:11:35.085Z,2.17
2023-02-18T00:14:04.385Z,2.05
2023-02-18T00:16:31.974Z,1.73
2023-02-18T00:19:06.328Z,2.03
2023-02-18T00:21:35.342Z,1.70
2023-02-18T00:24:03.877Z,2.00
2023-02-18T00:26:30.991Z,1.92
2023-02-18T00:28:57.964Z,1.92
2023-02-18T00:31:34.549Z,2.08
2023-02-18T00:34:03.950Z,1.90
2023-02-18T00:36:31.273Z,2.10
2023-02-18T00:39:03.867Z,1.75
2023-02-18T00:41:32.334Z,1.80
2023-02-18T00:43:59.470Z,1.90
2023-02-18T00:46:27.609Z,2.10
2023-02-18T00:48:55.280Z,1.92
2023-02-18T00:51:23.546Z,1.70
2023-02-18T00:53:50.689Z,1.90
2023-02-18T00:56:17.938Z,1.75
2023-02-18T00:58:44.921Z,2.00
2023-02-18T01:01:12.655Z,1.90
2023-02-18T01:03:42.840Z,1.98
2023-02-18T01:06:11.680Z,2.30
2023-02-18T01:08:40.636Z,2.17
2023-02-18T01:11:10.228Z,2.00
2023-02-18T01:13:38.012Z,2.22
2023-02-18T01:16:07.776Z,1.80
2023-02-18T01:18:35.932Z,2.10
2023-02-18T01:21:08.437Z,2.05
2023-02-18T01:23:38.685Z,2.08
2023-02-18T01:26:06.627Z,2.00
2023-02-18T01:28:34.208Z,2.08
2023-02-18T01:31:07.639Z,2.03
2023-02-18T01:33:35.547Z,1.63
2023-02-18T01:36:03.420Z,2.03
2023-02-18T01:38:30.620Z,2.00
2023-02-18T01:40:57.596Z,2.22
2023-02-18T01:43:24.719Z,2.03
2023-02-18T01:45:58.165Z,2.30
2023-02-18T01:48:49.437Z,2.22
2023-02-18T01:51:35.744Z,2.03
2023-02-18T01:54:16.187Z,2.30
2023-02-18T01:56:58.955Z,2.28
2023-02-18T01:59:52.013Z,2.03
2023-02-18T02:02:25.078Z,2.40
2023-02-18T02:04:54.353Z,2.60
2023-02-18T02:07:24.253Z,2.22
2023-02-18T02:09:58.372Z,2.33
2023-02-18T02:12:31.514Z,2.35
2023-02-18T02:15:31.556Z,2.40
2023-02-18T02:18:35.223Z,1.80
2023-02-18T02:21:29.217Z,1.92
2023-02-18T02:24:55.418Z,1.70
2023-02-18T02:27:32.309Z,2.53
2023-02-18T02:30:36.618Z,2.38
2023-02-18T02:33:50.350Z,2.70
2023-02-18T02:36:38.967Z,2.40
2023-02-18T02:39:15.121Z,2.10
2023-02-18T02:42:28.021Z,1.92
2023-02-18T02:45:09.792Z,2.80
2023-02-18T02:47:49.892Z,1.90
2023-02-18T02:50:54.869Z,2.17
2023-02-18T02:53:27.352Z,2.00
2023-02-18T02:55:56.075Z,2.03
2023-02-18T02:58:24.240Z,2.35
2023-02-18T03:01:21.677Z,2.30
2023-02-18T03:04:23.000Z,2.30
2023-02-18T03:07:12.167Z,2.83
2023-02-18T03:10:08.114Z,2.65
2023-02-18T03:12:53.640Z,2.45
2023-02-18T03:15:34.202Z,2.65
2023-02-18T03:18:08.886Z,2.55
2023-02-18T03:20:57.473Z,2.55
2023-02-18T03:23:34.812Z,2.72
2023-02-18T03:26:06.271Z,2.80
2023-02-18T03:28:35.094Z,2.70
2023-02-18T03:31:13.323Z,2.72
2023-02-18T03:33:52.169Z,2.70
2023-02-18T03:36:21.087Z,2.20
2023-02-18T03:39:15.988Z,2.25
2023-02-18T03:41:43.936Z,2.72
2023-02-18T03:44:12.728Z,2.90
2023-02-18T03:46:45.381Z,2.70
2023-02-18T03:49:14.222Z,2.90
2023-02-18T03:51:41.987Z,2.85
2023-02-18T03:54:10.153Z,2.80
2023-02-18T03:56:37.790Z,2.63
2023-02-18T03:59:04.843Z,3.08
2023-02-18T04:01:31.866Z,2.85
2023-02-18T04:03:59.060Z,3.10
2023-02-18T04:06:26.054Z,2.80
2023-02-18T04:08:53.036Z,3.20
2023-02-18T04:11:20.009Z,2.80
2023-02-18T04:13:47.336Z,2.83
2023-02-18T04:16:14.782Z,2.80
2023-02-18T04:18:41.796Z,2.92
2023-02-18T04:21:09.595Z,2.95
2023-02-18T04:23:36.505Z,2.85
2023-02-18T04:26:03.583Z,3.05
2023-02-18T04:28:30.487Z,3.10
2023-02-18T04:30:57.427Z,3.38
2023-02-18T04:33:24.344Z,3.20
2023-02-18T04:35:51.296Z,3.03
2023-02-18T04:38:18.244Z,3.22
2023-02-18T04:40:45.164Z,3.30
2023-02-18T04:43:12.275Z,3.05
2023-02-18T04:45:39.201Z,3.05
2023-02-18T04:48:06.243Z,2.65
2023-02-18T04:50:33.163Z,3.63
2023-02-18T04:53:00.098Z,3.33
2023-02-18T04:55:28.084Z,3.08
2023-02-18T04:57:55.000Z,3.13
2023-02-18T05:00:22.097Z,2.60
2023-02-18T05:02:49.041Z,3.03
2023-02-18T05:05:16.445Z,2.85
2023-02-18T05:07:43.452Z,2.70
2023-02-18T05:10:15.611Z,2.92
2023-02-18T05:12:42.638Z,3.10
2023-02-18T05:15:10.322Z,2.60
2023-02-18T05:17:37.254Z,2.63
2023-02-18T05:20:08.915Z,3.25
2023-02-18T05:22:37.226Z,2.53
2023-02-18T05:25:05.204Z,2.95
2023-02-18T05:27:32.328Z,2.60
2023-02-18T05:29:59.316Z,2.55
2023-02-18T05:32:26.355Z,2.70
2023-02-18T05:34:53.285Z,3.08
2023-02-18T05:37:20.170Z,2.78
2023-02-18T05:39:47.112Z,2.95
2023-02-18T05:42:14.227Z,2.67
2023-02-18T05:44:41.191Z,3.50
2023-02-18T05:47:11.767Z,3.05
2023-02-18T05:49:41.471Z,2.80
2023-02-18T05:52:10.469Z,2.67
2023-02-18T05:54:37.993Z,2.95
2023-02-18T05:57:05.040Z,2.90
2023-02-18T05:59:32.115Z,2.38
2023-02-18T06:01:59.132Z,2.92
2023-02-18T06:04:26.053Z,2.60
2023-02-18T06:06:52.999Z,3.05
2023-02-18T06:09:19.908Z,2.63
2023-02-18T06:11:46.820Z,2.95
2023-02-18T06:14:13.757Z,2.20
2023-02-18T06:16:40.767Z,2.58
2023-02-18T06:19:08.003Z,2.63
2023-02-18T06:21:35.306Z,2.67
2023-02-18T06:24:02.504Z,2.75
2023-02-18T06:26:29.447Z,2.80
2023-02-18T06:28:56.398Z,2.67
2023-02-18T06:31:23.418Z,2.65
2023-02-18T06:33:50.519Z,2.90
2023-02-18T06:36:17.471Z,2.67
2023-02-18T06:38:45.735Z,2.75
2023-02-18T06:41:14.137Z,2.53
2023-02-18T06:43:42.050Z,2.25
2023-02-18T06:46:09.736Z,2.40
2023-02-18T06:48:38.079Z,2.80
2023-02-18T06:51:05.478Z,3.10
2023-02-18T06:53:32.478Z,2.97
2023-02-18T06:55:59.422Z,2.97
2023-02-18T06:58:26.390Z,3.13
2023-02-18T07:00:53.354Z,3.25
2023-02-18T07:03:20.458Z,2.65
2023-02-18T07:05:47.571Z,2.95
2023-02-18T07:08:14.891Z,3.30
2023-02-18T07:10:41.883Z,2.95
2023-02-18T07:13:08.854Z,2.60
2023-02-18T07:15:35.805Z,2.92
2023-02-18T07:18:02.795Z,3.03
2023-02-18T07:20:30.146Z,2.90
2023-02-18T07:22:57.129Z,2.92
2023-02-18T07:25:24.543Z,3.08
2023-02-18T07:27:51.844Z,2.60
2023-02-18T07:30:20.572Z,2.70
2023-02-18T07:32:47.755Z,2.65
2023-02-18T07:35:17.256Z,2.38
2023-02-18T07:37:48.839Z,3.17
2023-02-18T07:40:20.307Z,2.72
2023-02-18T07:42:47.776Z,2.85
2023-02-18T07:45:14.894Z,2.50
2023-02-18T07:47:42.510Z,2.65
2023-02-18T07:50:10.416Z,2.97
2023-02-18T07:52:37.585Z,2.72
2023-02-18T07:55:04.908Z,2.72
2023-02-18T07:57:32.035Z,2.55
2023-02-18T07:59:58.954Z,2.80
2023-02-18T08:02:26.002Z,2.58
2023-02-18T08:04:53.002Z,2.38
2023-02-18T08:07:21.888Z,2.67
2023-02-18T08:09:50.491Z,2.60
2023-02-18T08:12:17.871Z,2.22
2023-02-18T08:14:45.284Z,2.47
2023-02-18T08:17:12.216Z,2.97
2023-02-18T08:19:39.206Z,2.20
2023-02-18T08:22:06.154Z,2.15
2023-02-18T08:24:33.246Z,2.53
2023-02-18T08:27:01.555Z,2.70
2023-02-18T08:29:29.640Z,2.50
2023-02-18T08:31:58.095Z,2.13
2023-02-18T08:34:26.332Z,2.20
2023-02-18T08:36:53.281Z,2.25
2023-02-18T08:39:20.205Z,2.15
2023-02-18T08:41:47.225Z,2.05
2023-02-18T08:44:14.331Z,2.00
2023-02-18T08:46:41.367Z,2.20
2023-02-18T08:49:08.656Z,2.08
2023-02-18T08:51:36.019Z,2.47
2023-02-18T08:54:03.029Z,2.38
2023-02-18T08:56:30.079Z,2.10
2023-02-18T08:58:57.018Z,2.22
2023-02-18T09:01:24.122Z,2.05
2023-02-18T09:03:51.162Z,2.60
2023-02-18T09:06:18.152Z,2.30
2023-02-18T09:08:45.142Z,2.28
2023-02-18T09:11:12.857Z,2.53
2023-02-18T09:13:40.216Z,2.85
2023-02-18T09:16:11.947Z,2.92
2023-02-18T09:18:39.170Z,2.50
2023-02-18T09:21:09.755Z,2.55
2023-02-18T09:26:12.781Z,2.35
2023-02-18T09:28:40.350Z,2.53
2023-02-18T09:31:11.103Z,2.70
2023-02-18T09:33:44.251Z,2.75
2023-02-18T09:36:12.786Z,2.28
2023-02-18T09:38:39.782Z,2.60
2023-02-18T09:41:28.417Z,2.30
2023-02-18T09:44:01.279Z,2.33
2023-02-18T09:46:46.547Z,2.60
2023-02-18T09:49:25.556Z,2.55
2023-02-18T09:51:55.602Z,2.58
2023-02-18T09:54:27.071Z,2.30
2023-02-18T09:56:54.445Z,2.35
2023-02-18T09:59:24.783Z,2.50
2023-02-18T10:01:54.411Z,2.38
2023-02-18T10:04:40.740Z,2.10
2023-02-18T10:07:28.507Z,2.17
2023-02-18T10:09:59.215Z,2.33
2023-02-18T10:12:27.438Z,2.70
2023-02-18T10:14:59.166Z,2.47
2023-02-18T10:17:31.190Z,2.60
2023-02-18T10:20:01.013Z,2.17
2023-02-18T10:22:29.864Z,2.40
2023-02-18T10:25:03.657Z,2.45
2023-02-18T10:27:37.403Z,2.25
2023-02-18T10:30:22.833Z,2.05
2023-02-18T10:32:56.296Z,2.20
2023-02-18T10:35:38.420Z,1.90
2023-02-18T10:38:26.768Z,1.77
2023-02-18T10:41:30.370Z,1.95
2023-02-18T10:44:18.047Z,2.10
2023-02-18T10:47:04.678Z,1.70
2023-02-18T10:49:41.747Z,1.88
2023-02-18T10:52:16.962Z,1.85
2023-02-18T10:55:10.811Z,2.10
2023-02-18T10:57:53.499Z,1.60
2023-02-18T11:00:27.236Z,1.50
2023-02-18T11:03:17.605Z,1.42
2023-02-18T11:05:47.861Z,1.95
2023-02-18T11:08:21.709Z,1.45
2023-02-18T11:10:50.348Z,1.42
2023-02-18T11:13:32.706Z,1.52
2023-02-18T11:16:09.212Z,1.52
2023-02-18T11:18:43.717Z,1.40
2023-02-18T11:21:34.436Z,1.65
2023-02-18T11:24:15.244Z,1.17
2023-02-18T11:29:25.913Z,1.80
2023-02-18T11:31:56.906Z,1.80
2023-02-18T11:34:29.743Z,1.70
2023-02-18T11:37:10.408Z,2.13
2023-02-18T11:39:43.057Z,1.77
2023-02-18T11:42:15.988Z,2.30
2023-02-18T11:44:56.775Z,1.88
2023-02-18T11:47:33.786Z,1.67
2023-02-18T11:50:09.514Z,2.10
2023-02-18T11:52:40.214Z,1.92
2023-02-18T11:55:24.822Z,1.70
2023-02-18T11:57:56.508Z,1.95
2023-02-18T12:00:33.104Z,2.40
2023-02-18T12:03:04.640Z,2.42
2023-02-18T12:05:33.224Z,2.72
2023-02-18T12:08:25.479Z,3.13
2023-02-18T12:11:01.816Z,2.80
2023-02-18T12:13:38.169Z,2.67
2023-02-18T12:16:46.977Z,2.88
2023-02-18T12:19:37.035Z,2.55
2023-02-18T12:22:32.286Z,2.38
2023-02-18T12:25:31.022Z,2.35
2023-02-18T12:28:22.058Z,2.42
2023-02-18T12:34:11.396Z,1.83
2023-02-18T12:36:48.399Z,2.72
2023-02-18T12:39:54.863Z,2.33
2023-02-18T12:42:49.583Z,2.47
2023-02-18T12:45:53.095Z,2.65
2023-02-18T12:48:33.168Z,2.65
2023-02-18T12:51:19.943Z,2.50
2023-02-18T12:54:23.511Z,2.67
2023-02-18T12:57:33.659Z,2.13
2023-02-18T13:00:28.003Z,2.65
2023-02-18T13:03:20.033Z,2.67
2023-02-18T13:06:38.573Z,2.53
2023-02-18T13:09:23.812Z,2.30
2023-02-18T13:12:23.680Z,2.55
2023-02-18T13:15:03.247Z,2.60
2023-02-18T13:17:37.923Z,2.72
2023-02-18T13:20:39.878Z,2.42
2023-02-18T13:23:16.133Z,2.45
2023-02-18T13:25:47.154Z,2.45
2023-02-18T13:28:31.928Z,2.17
2023-02-18T13:31:58.105Z,1.70
2023-02-18T13:34:48.467Z,2.42
2023-02-18T13:37:39.732Z,2.03
2023-02-18T13:40:19.422Z,2.33
2023-02-18T13:42:46.340Z,2.00
2023-02-18T13:45:29.578Z,1.98
2023-02-18T13:47:57.741Z,2.10
2023-02-18T13:50:25.661Z,2.22
2023-02-18T13:53:08.113Z,2.20
2023-02-18T13:55:49.017Z,2.30
2023-02-18T14:01:02.077Z,1.73
2023-02-18T14:03:42.397Z,2.40
2023-02-18T14:06:38.940Z,2.60
2023-02-18T14:09:25.856Z,2.42
2023-02-18T14:12:30.517Z,2.15
2023-02-18T14:14:58.820Z,2.15
2023-02-18T14:17:40.812Z,2.20
2023-02-18T14:20:07.603Z,2.15
2023-02-18T14:22:49.189Z,2.50
2023-02-18T14:25:27.020Z,2.22
2023-02-18T14:27:54.532Z,2.28
2023-02-18T14:30:40.629Z,3.10
2023-02-18T14:33:16.232Z,2.72
2023-02-18T14:36:05.362Z,2.55
2023-02-18T14:39:16.625Z,2.53
2023-02-18T14:42:25.525Z,2.22
2023-02-18T14:45:09.550Z,2.88
2023-02-18T14:48:30.358Z,3.10
2023-02-18T14:51:00.126Z,3.03
2023-02-18T14:53:28.484Z,3.22
2023-02-18T14:56:02.375Z,3.20
2023-02-18T14:58:38.528Z,2.70
2023-02-18T15:01:23.040Z,2.90
2023-02-18T15:03:54.013Z,2.38
2023-02-18T15:06:35.139Z,2.53
2023-02-18T15:09:19.522Z,2.63
2023-02-18T15:12:01.547Z,2.92
2023-02-18T15:17:24.018Z,2.17
2023-02-18T15:19:58.381Z,2.70
2023-02-18T15:22:31.190Z,3.03
2023-02-18T15:24:58.781Z,2.25
2023-02-18T15:27:32.980Z,2.50
2023-02-18T15:30:19.468Z,2.50
2023-02-18T15:32:54.959Z,2.63
2023-02-18T15:35:29.283Z,2.45
2023-02-18T15:38:00.138Z,2.40
2023-02-18T15:43:06.307Z,2.15
2023-02-18T15:45:43.426Z,2.17
2023-02-18T15:48:48.765Z,2.08
2023-02-18T15:51:22.622Z,2.42
2023-02-18T15:53:54.343Z,2.70
2023-02-18T15:56:32.430Z,2.30
2023-02-18T15:59:25.493Z,2.83
2023-02-18T16:02:08.980Z,2.65
2023-02-18T16:04:42.007Z,2.25
2023-02-18T16:07:37.404Z,2.33
2023-02-18T16:10:44.563Z,2.53
2023-02-18T16:13:16.852Z,2.65
2023-02-18T16:15:47.700Z,2.50
2023-02-18T16:18:41.688Z,2.53
2023-02-18T16:21:17.674Z,2.78
2023-02-18T16:24:00.557Z,2.70
2023-02-18T16:26:30.688Z,2.47
2023-02-18T16:29:16.838Z,2.88
2023-02-18T16:31:43.848Z,2.67
2023-02-18T16:34:11.205Z,2.88
2023-02-18T16:36:58.111Z,2.45
2023-02-18T16:39:25.244Z,2.88
2023-02-18T16:41:52.158Z,3.00
2023-02-18T16:44:19.087Z,3.40
2023-02-18T16:46:46.214Z,2.97
2023-02-18T16:49:14.190Z,2.97
2023-02-18T16:51:42.628Z,3.20
2023-02-18T16:54:14.008Z,3.33
2023-02-18T16:56:41.032Z,2.83
2023-02-18T16:59:08.122Z,2.85
2023-02-18T17:01:44.971Z,3.28
2023-02-18T17:04:15.354Z,3.50
2023-02-18T17:06:44.923Z,3.30
2023-02-18T17:09:23.512Z,3.42
2023-02-18T17:11:53.481Z,3.40
2023-02-18T17:14:22.420Z,3.33
2023-02-18T17:16:52.801Z,3.30
2023-02-18T17:19:20.381Z,2.95
2023-02-18T17:21:49.006Z,3.13
2023-02-18T17:24:18.400Z,3.03
2023-02-18T17:26:45.443Z,3.35
2023-02-18T17:29:12.650Z,3.25
2023-02-18T17:31:47.081Z,2.78
2023-02-18T17:34:22.362Z,3.20
2023-02-18T17:36:49.280Z,3.03
2023-02-18T17:39:18.164Z,3.00
2023-02-18T17:41:45.281Z,3.35
2023-02-18T17:44:21.148Z,3.47
2023-02-18T17:46:52.235Z,3.55
2023-02-18T17:49:19.208Z,4.05
2023-02-18T17:51:46.169Z,3.67
2023-02-18T17:54:18.586Z,3.63
2023-02-18T17:56:46.141Z,3.50
2023-02-18T17:59:13.281Z,3.22
2023-02-18T18:01:40.351Z,3.25
2023-02-18T18:04:19.289Z,2.83
2023-02-18T18:06:47.037Z,3.58
2023-02-18T18:09:14.046Z,3.45
2023-02-18T18:11:41.306Z,3.72
2023-02-18T18:14:13.203Z,3.67
2023-02-18T18:16:40.370Z,3.28
2023-02-18T18:19:07.412Z,3.42
2023-02-18T18:21:36.109Z,3.20
2023-02-18T18:24:04.061Z,3.67
2023-02-18T18:26:31.371Z,3.08
2023-02-18T18:28:58.455Z,3.35
2023-02-18T18:31:25.682Z,3.38
2023-02-18T18:33:53.437Z,3.38
2023-02-18T18:36:23.880Z,3.15
2023-02-18T18:38:51.050Z,3.60
2023-02-18T18:41:21.481Z,3.47
2023-02-18T18:43:49.553Z,3.85
2023-02-18T18:46:16.818Z,3.38
2023-02-18T18:48:43.769Z,3.15
2023-02-18T18:51:18.550Z,3.65
2023-02-18T18:53:45.656Z,2.88
2023-02-18T18:56:13.629Z,2.75
2023-02-18T18:58:40.699Z,3.38
2023-02-18T19:01:19.427Z,3.53
2023-02-18T19:03:47.411Z,3.22
2023-02-18T19:06:16.603Z,3.53
2023-02-18T19:08:45.449Z,3.13
2023-02-18T19:11:12.838Z,3.42
2023-02-18T19:13:40.654Z,3.20
2023-02-18T19:16:24.434Z,2.95
2023-02-18T19:18:51.660Z,3.10
2023-02-18T19:21:18.768Z,3.50
2023-02-18T19:23:46.109Z,3.67
2023-02-18T19:26:16.913Z,3.28
2023-02-18T19:28:45.653Z,3.17
2023-02-18T19:31:13.134Z,3.33
2023-02-18T19:33:40.406Z,3.15
2023-02-18T19:36:11.687Z,3.22
2023-02-18T19:38:39.211Z,3.60
2023-02-18T19:41:19.112Z,3.22
2023-02-18T19:43:48.624Z,3.15
2023-02-18T19:46:18.636Z,3.22
2023-02-18T19:48:52.218Z,3.07
2023-02-18T19:51:21.166Z,3.60
2023-02-18T19:53:48.127Z,3.38
2023-02-18T19:56:15.309Z,3.42
2023-02-18T19:58:42.268Z,3.50
2023-02-18T20:01:13.902Z,3.13
2023-02-18T20:03:41.563Z,3.40
2023-02-18T20:06:19.769Z,2.85
2023-02-18T20:08:47.225Z,3.35
2023-02-18T20:11:14.229Z,3.53
2023-02-18T20:13:42.077Z,3.58
2023-02-18T20:16:10.372Z,3.50
2023-02-18T20:18:37.340Z,3.10
2023-02-18T20:21:04.672Z,3.90
2023-02-18T20:23:31.633Z,3.97
2023-02-18T20:26:02.585Z,3.97
2023-02-18T20:31:08.705Z,2.80
2023-02-18T20:33:36.264Z,3.70
2023-02-18T20:36:05.124Z,3.33
2023-02-18T20:38:32.570Z,3.38
2023-02-18T20:41:14.372Z,3.53
2023-02-18T20:43:41.798Z,2.97
2023-02-18T20:46:13.112Z,3.28
2023-02-18T20:48:40.154Z,4.13
2023-02-18T20:51:14.427Z,4.68
2023-02-18T20:53:43.546Z,3.75
2023-02-18T20:56:10.937Z,3.85
2023-02-18T20:58:38.578Z,3.55
2023-02-18T21:01:12.206Z,3.30
2023-02-18T21:03:40.102Z,3.40
2023-02-18T21:06:13.706Z,3.35
2023-02-18T21:08:41.404Z,3.90
2023-02-18T21:11:15.444Z,3.55
2023-02-18T21:13:43.111Z,3.13
2023-02-18T21:16:10.400Z,3.50
2023-02-18T21:18:40.462Z,3.03
2023-02-18T21:21:10.253Z,3.50
2023-02-18T21:23:38.946Z,3.13
2023-02-18T21:26:22.337Z,3.17
2023-02-18T21:28:52.932Z,3.33
2023-02-18T21:31:24.669Z,3.28
2023-02-18T21:33:52.101Z,3.50
2023-02-18T21:36:20.761Z,3.63
2023-02-18T21:38:56.745Z,3.33
2023-02-18T21:41:24.663Z,3.22
2023-02-18T21:43:52.120Z,3.22
2023-02-18T21:46:31.797Z,3.65
2023-02-18T21:49:02.057Z,3.72
2023-02-18T21:51:52.393Z,3.80
2023-02-18T21:54:22.994Z,3.72
2023-02-18T21:56:50.540Z,4.22
2023-02-18T21:59:19.744Z,4.18
2023-02-18T22:01:47.846Z,3.80
2023-02-18T22:04:16.700Z,4.15
2023-02-18T22:06:43.944Z,4.13
2023-02-18T22:09:12.296Z,3.78
2023-02-18T22:11:44.852Z,3.85
2023-02-18T22:14:13.820Z,3.70
2023-02-18T22:16:41.827Z,3.88
2023-02-18T22:19:11.172Z,4.00
2023-02-18T22:21:38.381Z,3.80
2023-02-18T22:24:06.522Z,3.40
2023-02-18T22:26:34.156Z,3.78
2023-02-18T22:29:01.164Z,3.55
2023-02-18T22:31:30.762Z,3.45
2023-02-18T22:34:00.501Z,3.38
2023-02-18T22:36:29.176Z,3.50
2023-02-18T22:38:58.183Z,3.33
2023-02-18T22:41:28.271Z,3.17
2023-02-18T22:44:05.818Z,2.80
2023-02-18T22:46:36.737Z,2.95
2023-02-18T22:49:06.768Z,3.42
2023-02-18T22:51:37.961Z,3.13
2023-02-18T22:54:08.187Z,3.38
2023-02-18T22:56:35.121Z,3.70
2023-02-18T22:59:02.282Z,3.08
2023-02-18T23:01:33.998Z,3.38
2023-02-18T23:04:11.533Z,3.17
2023-02-18T23:06:41.369Z,2.90
2023-02-18T23:09:13.048Z,3.20
2023-02-18T23:11:40.064Z,2.95
2023-02-18T23:14:18.712Z,3.28
2023-02-18T23:17:07.540Z,2.97
2023-02-18T23:19:36.545Z,3.10
2023-02-18T23:22:04.106Z,2.83
2023-02-18T23:24:36.829Z,3.65
2023-02-18T23:27:04.819Z,3.17
2023-02-18T23:29:31.980Z,3.17
2023-02-18T23:31:58.935Z,2.95
2023-02-18T23:34:25.933Z,2.90
2023-02-18T23:36:52.900Z,3.40
2023-02-18T23:39:22.311Z,2.83
2023-02-18T23:41:50.244Z,2.60
2023-02-18T23:44:21.633Z,3.30
2023-02-18T23:46:49.005Z,3.90
2023-02-18T23:49:19.548Z,2.80
2023-02-18T23:51:46.486Z,2.90
2023-02-18T23:54:13.446Z,3.05
2023-02-18T23:56:40.962Z,2.88
2023-02-18T23:59:07.948Z,2.90
